Time;durP1;ratioP1;P1;durP2;ratioP2;P2;SDS_P1;SDS_P2;PMS_P1;PMS_P2;Temp;Humidity;BMP_temperature;BMP_pressure;BME280_temperature;BME280_humidity;BME280_pressure;Samples;Min_cycle;Max_cycle;Signal;HPM_P1;HPM_P2
2022/04/18 00:00:27;;;;;;;6.05;2.92;;;13.90;99.90;;;;;;5078922;28;20068;-77
2022/04/18 00:02:55;;;;;;;5.55;2.35;;;14.00;99.90;;;;;;5074447;28;20044;-77
2022/04/18 00:05:22;;;;;;;4.28;2.65;;;13.90;99.90;;;;;;5064630;28;20044;-78
2022/04/18 00:07:50;;;;;;;4.00;2.38;;;13.90;99.90;;;;;;5088624;28;20059;-78
2022/04/18 00:10:18;;;;;;;5.85;2.92;;;13.90;99.90;;;;;;5067488;28;20055;-78
2022/04/18 00:12:45;;;;;;;5.30;2.42;;;13.90;99.90;;;;;;5077312;28;20068;-78
2022/04/18 00:15:13;;;;;;;5.90;2.33;;;13.90;99.90;;;;;;5067406;28;20125;-78
2022/04/18 00:17:41;;;;;;;4.65;2.80;;;13.80;99.90;;;;;;5053851;28;20047;-78
2022/04/18 00:20:10;;;;;;;7.93;2.60;;;13.80;99.90;;;;;;5063935;28;20463;-78
2022/04/18 00:22:37;;;;;;;9.20;3.33;;;13.90;99.90;;;;;;5079198;28;20126;-77
2022/04/18 00:25:05;;;;;;;6.28;3.10;;;13.90;99.90;;;;;;5080488;28;20250;-78
2022/04/18 00:27:33;;;;;;;10.68;2.33;;;13.90;99.90;;;;;;5074354;28;20487;-78
2022/04/18 00:30:00;;;;;;;5.45;2.85;;;13.90;99.90;;;;;;5067280;28;20063;-78
2022/04/18 00:32:29;;;;;;;7.13;2.92;;;13.90;99.90;;;;;;5038984;28;20463;-78
2022/04/18 00:34:57;;;;;;;4.68;2.25;;;13.90;99.90;;;;;;5084552;28;20123;-78
2022/04/18 00:37:25;;;;;;;7.43;2.72;;;13.80;99.90;;;;;;5043242;28;20063;-78
2022/04/18 00:39:52;;;;;;;10.65;2.65;;;13.80;99.90;;;;;;5066182;28;20040;-78
2022/04/18 00:42:20;;;;;;;5.93;3.13;;;13.80;99.90;;;;;;5050091;28;22821;-78
2022/04/18 00:44:48;;;;;;;5.22;3.13;;;13.80;99.90;;;;;;5056125;28;20051;-78
2022/04/18 00:47:15;;;;;;;7.55;2.70;;;13.80;99.90;;;;;;5081209;28;20048;-77
2022/04/18 00:49:43;;;;;;;8.15;2.35;;;13.80;99.90;;;;;;5091212;28;20062;-78
2022/04/18 00:52:11;;;;;;;5.60;3.08;;;13.80;99.90;;;;;;5077450;28;20094;-78
2022/04/18 00:54:39;;;;;;;4.15;2.80;;;13.70;99.90;;;;;;5090168;28;20516;-78
2022/04/18 00:57:07;;;;;;;6.85;3.40;;;13.70;99.90;;;;;;5074375;28;20082;-78
2022/04/18 00:59:37;;;;;;;9.63;2.92;;;13.70;99.90;;;;;;5068594;28;20408;-79
2022/04/18 01:02:05;;;;;;;3.13;2.30;;;13.70;99.90;;;;;;5048911;28;20560;-79
2022/04/18 01:04:33;;;;;;;8.55;2.30;;;13.60;99.90;;;;;;5082910;28;20052;-79
2022/04/18 01:07:02;;;;;;;9.10;2.53;;;13.60;99.90;;;;;;5085781;28;20047;-78
2022/04/18 01:09:32;;;;;;;4.97;2.30;;;13.50;99.90;;;;;;5068735;28;20051;-79
2022/04/18 01:12:00;;;;;;;4.95;2.75;;;13.50;99.90;;;;;;5063611;28;20048;-78
2022/04/18 01:14:53;;;;;;;6.63;2.65;;;13.50;99.90;;;;;;5056087;28;20044;-78
2022/04/18 01:17:40;;;;;;;3.72;2.25;;;13.50;99.90;;;;;;5075254;28;20171;-78
2022/04/18 01:20:34;;;;;;;7.43;2.72;;;13.50;99.90;;;;;;5075942;28;20051;-77
2022/04/18 01:23:20;;;;;;;7.57;2.72;;;13.50;99.90;;;;;;5073523;28;20468;-77
2022/04/18 01:29:01;;;;;;;5.28;2.10;;;13.60;99.90;;;;;;5044217;28;20068;-77
2022/04/18 01:31:34;;;;;;;8.80;3.15;;;13.50;99.90;;;;;;5071918;28;20071;-78
2022/04/18 01:34:04;;;;;;;6.20;2.80;;;13.60;99.90;;;;;;5053275;28;20040;-78
2022/04/18 01:36:32;;;;;;;6.15;2.67;;;13.60;99.90;;;;;;5036050;28;20044;-78
2022/04/18 01:39:03;;;;;;;9.43;2.80;;;13.60;99.90;;;;;;5037090;28;20044;-78
2022/04/18 01:41:30;;;;;;;5.53;2.67;;;13.60;99.90;;;;;;5020359;28;20048;-78
2022/04/18 01:43:59;;;;;;;8.90;4.45;;;13.60;99.90;;;;;;5019829;28;20052;-78
2022/04/18 01:46:27;;;;;;;7.63;2.88;;;13.60;99.90;;;;;;5053385;28;20044;-77
2022/04/18 01:48:55;;;;;;;7.32;2.90;;;13.60;99.90;;;;;;5036892;28;20097;-78
2022/04/18 01:51:22;;;;;;;8.57;2.58;;;13.60;99.90;;;;;;5053065;28;20182;-78
2022/04/18 01:53:52;;;;;;;9.55;2.38;;;13.60;99.90;;;;;;5053394;28;20041;-78
2022/04/18 01:56:20;;;;;;;7.57;3.35;;;13.50;99.90;;;;;;5051871;28;20037;-79
2022/04/18 01:58:48;;;;;;;7.97;3.10;;;13.50;99.90;;;;;;5075312;28;20047;-79
2022/04/18 02:01:17;;;;;;;11.48;2.72;;;13.60;99.90;;;;;;5076463;28;20043;-79
2022/04/18 02:03:45;;;;;;;7.38;3.15;;;13.60;99.90;;;;;;5076013;28;20047;-79
2022/04/18 02:06:14;;;;;;;7.50;2.50;;;13.60;99.90;;;;;;5059774;28;20435;-79
2022/04/18 02:08:42;;;;;;;5.25;2.70;;;13.60;99.90;;;;;;5076047;28;20074;-79
2022/04/18 02:11:10;;;;;;;6.90;2.85;;;13.50;99.90;;;;;;5093140;28;20035;-79
2022/04/18 02:13:38;;;;;;;7.90;2.72;;;13.50;99.90;;;;;;5076020;28;20043;-78
2022/04/18 02:16:09;;;;;;;7.32;2.13;;;13.40;99.90;;;;;;5075881;28;20059;-80
2022/04/18 02:18:40;;;;;;;7.40;2.42;;;13.40;99.90;;;;;;5076735;28;20047;-79
2022/04/18 02:21:11;;;;;;;4.20;2.97;;;13.40;99.90;;;;;;5059570;28;20070;-79
2022/04/18 02:23:40;;;;;;;3.97;2.17;;;13.40;99.90;;;;;;5059566;28;20090;-79
2022/04/18 02:26:08;;;;;;;4.18;1.90;;;13.40;99.90;;;;;;5076265;28;20054;-79
2022/04/18 02:28:37;;;;;;;7.97;2.35;;;13.30;99.90;;;;;;5092908;28;20032;-79
2022/04/18 02:31:09;;;;;;;7.35;2.28;;;13.30;99.90;;;;;;5055307;28;20036;-79
2022/04/18 02:33:37;;;;;;;8.43;2.20;;;13.40;99.90;;;;;;5072682;28;20486;-80
2022/04/18 02:36:05;;;;;;;4.95;2.70;;;13.30;99.90;;;;;;5072594;28;20040;-79
2022/04/18 02:38:33;;;;;;;4.88;1.92;;;13.30;99.90;;;;;;5072588;28;20792;-79
2022/04/18 02:41:00;;;;;;;6.60;2.00;;;13.30;99.90;;;;;;5056203;28;20093;-79
2022/04/18 02:43:28;;;;;;;5.88;2.83;;;13.30;99.90;;;;;;5039350;28;20040;-79
2022/04/18 02:46:05;;;;;;;5.68;2.25;;;13.30;99.90;;;;;;5045010;28;20052;-79
2022/04/18 02:48:44;;;;;;;6.28;2.05;;;13.30;99.90;;;;;;5044328;28;20067;-79
2022/04/18 02:51:17;;;;;;;5.28;1.80;;;13.30;99.90;;;;;;5043815;28;20048;-79
2022/04/18 02:53:46;;;;;;;7.03;1.75;;;13.20;99.90;;;;;;5076274;28;20067;-79
2022/04/18 02:56:13;;;;;;;6.72;2.17;;;13.20;99.90;;;;;;5059914;28;20056;-80
2022/04/18 02:58:46;;;;;;;3.85;1.48;;;13.10;99.90;;;;;;5060589;28;20478;-80
2022/04/18 03:01:14;;;;;;;6.57;2.55;;;13.10;99.90;;;;;;5069872;28;20224;-79
2022/04/18 03:03:42;;;;;;;5.82;2.60;;;13.10;99.90;;;;;;5059685;28;20059;-80
2022/04/18 03:06:10;;;;;;;4.22;1.50;;;13.20;99.90;;;;;;5043226;28;20091;-79
2022/04/18 03:08:38;;;;;;;3.97;1.77;;;13.10;99.90;;;;;;5043081;28;20059;-80
2022/04/18 03:11:07;;;;;;;2.95;1.40;;;13.20;99.90;;;;;;5059852;28;20064;-79
2022/04/18 03:13:43;;;;;;;4.43;1.60;;;13.20;99.90;;;;;;5059363;28;20051;-79
2022/04/18 03:16:32;;;;;;;2.45;1.50;;;13.20;99.90;;;;;;5046786;28;20048;-79
2022/04/18 03:19:00;;;;;;;5.60;1.95;;;13.20;99.90;;;;;;5059688;28;20048;-79
2022/04/18 03:21:29;;;;;;;6.90;2.10;;;13.20;99.90;;;;;;5052786;28;20490;-79
2022/04/18 03:24:00;;;;;;;5.90;2.10;;;13.10;99.90;;;;;;5039936;28;20573;-79
2022/04/18 03:26:53;;;;;;;6.07;1.65;;;13.10;99.90;;;;;;5039555;28;20052;-79
2022/04/18 03:29:27;;;;;;;4.95;2.28;;;13.10;99.90;;;;;;5055692;28;20051;-80
2022/04/18 03:31:56;;;;;;;8.35;1.88;;;13.10;99.90;;;;;;5055793;28;20055;-80
2022/04/18 03:34:28;;;;;;;4.40;1.70;;;13.10;99.90;;;;;;5039241;28;20048;-79
2022/04/18 03:39:52;;;;;;;3.75;1.75;;;13.10;99.90;;;;;;5039098;28;20067;-80
2022/04/18 03:42:30;;;;;;;6.47;1.83;;;13.00;99.90;;;;;;5039369;28;20093;-80
2022/04/18 03:45:04;;;;;;;3.53;1.55;;;13.00;99.90;;;;;;5039828;28;20044;-78
2022/04/18 03:47:32;;;;;;;5.28;1.90;;;13.00;99.90;;;;;;5038813;28;20053;-79
2022/04/18 03:50:01;;;;;;;3.22;1.60;;;12.90;99.90;;;;;;5055594;28;20044;-79
2022/04/18 03:52:32;;;;;;;4.57;2.05;;;12.90;99.90;;;;;;5039201;28;20052;-79
2022/04/18 03:55:03;;;;;;;2.47;1.42;;;12.90;99.90;;;;;;5039371;28;20111;-80
2022/04/18 03:57:35;;;;;;;3.72;1.88;;;12.90;99.90;;;;;;5023211;28;20503;-79
2022/04/18 04:00:07;;;;;;;3.65;1.67;;;12.90;99.90;;;;;;5055211;28;20098;-80
2022/04/18 04:02:43;;;;;;;3.72;1.90;;;12.90;99.90;;;;;;5056556;28;20047;-78
2022/04/18 04:05:17;;;;;;;5.68;2.10;;;12.80;99.90;;;;;;5039838;28;20059;-79
2022/04/18 04:07:49;;;;;;;3.17;1.35;;;12.90;99.90;;;;;;5055392;28;20051;-79
2022/04/18 04:10:25;;;;;;;5.43;1.95;;;12.80;99.90;;;;;;5040649;28;20036;-79
2022/04/18 04:12:53;;;;;;;2.05;1.13;;;12.80;99.90;;;;;;5037481;28;20044;-79
2022/04/18 04:15:39;;;;;;;3.05;1.70;;;12.80;99.90;;;;;;5058173;28;20121;-79
2022/04/18 04:18:15;;;;;;;5.57;2.67;;;12.70;99.90;;;;;;5073322;28;20227;-78
2022/04/18 04:20:42;;;;;;;4.80;3.00;;;12.70;99.90;;;;;;5054411;28;20491;-79
2022/04/18 04:23:13;;;;;;;7.05;1.63;;;12.70;99.90;;;;;;5038786;28;20059;-79
2022/04/18 04:26:00;;;;;;;20.27;2.65;;;12.70;99.90;;;;;;5044569;28;20040;-78
2022/04/18 04:28:45;;;;;;;6.22;1.95;;;12.70;99.90;;;;;;5038108;28;20137;-78
2022/04/18 04:31:19;;;;;;;5.88;1.90;;;12.70;99.90;;;;;;5054643;28;20060;-77
2022/04/18 04:33:48;;;;;;;7.93;2.17;;;12.70;99.90;;;;;;5037698;28;20106;-77
2022/04/18 04:36:17;;;;;;;5.68;1.92;;;12.70;99.90;;;;;;5054453;28;20119;-78
2022/04/18 04:38:46;;;;;;;10.93;3.03;;;12.70;99.90;;;;;;5054464;28;20047;-78
2022/04/18 04:41:25;;;;;;;5.47;1.55;;;12.70;99.90;;;;;;5039688;28;20090;-78
2022/04/18 04:43:58;;;;;;;3.40;1.70;;;12.70;99.90;;;;;;5054480;28;20050;-77
2022/04/18 04:46:50;;;;;;;14.98;2.22;;;12.70;99.90;;;;;;5041334;28;20070;-78
2022/04/18 04:49:21;;;;;;;3.88;2.08;;;12.70;99.90;;;;;;5054660;28;20041;-78
2022/04/18 04:52:19;;;;;;;4.65;1.70;;;12.70;99.90;;;;;;5045931;28;20131;-77
2022/04/18 04:54:49;;;;;;;2.42;1.25;;;12.70;99.90;;;;;;5021215;28;20076;-78
2022/04/18 04:57:26;;;;;;;5.88;1.45;;;12.70;99.90;;;;;;5039407;28;20036;-77
2022/04/18 05:00:25;;;;;;;3.42;1.67;;;12.70;99.90;;;;;;5041557;28;20040;-78
2022/04/18 05:03:09;;;;;;;7.05;2.78;;;12.60;99.90;;;;;;5053799;28;20801;-77
2022/04/18 05:05:37;;;;;;;9.15;1.85;;;12.50;99.90;;;;;;5020703;28;20110;-77
2022/04/18 05:08:11;;;;;;;13.35;2.25;;;12.60;99.90;;;;;;5037801;28;20075;-77
2022/04/18 05:10:39;;;;;;;6.40;1.75;;;12.60;99.90;;;;;;5052420;28;20049;-77
2022/04/18 05:13:15;;;;;;;10.75;2.35;;;12.60;99.90;;;;;;5053792;28;20048;-77
2022/04/18 05:15:46;;;;;;;3.50;1.83;;;12.60;99.90;;;;;;5037083;28;20110;-77
2022/04/18 05:18:39;;;;;;;5.97;2.60;;;12.60;99.90;;;;;;5024033;28;20134;-77
2022/04/18 05:21:08;;;;;;;5.88;2.25;;;12.60;99.90;;;;;;5037204;28;20053;-76
2022/04/18 05:23:36;;;;;;;5.88;1.88;;;12.60;99.90;;;;;;5036803;28;20036;-77
2022/04/18 05:26:04;;;;;;;4.40;1.60;;;12.60;99.90;;;;;;5052896;28;20111;-77
2022/04/18 05:28:34;;;;;;;6.93;1.63;;;12.60;99.90;;;;;;5036922;28;20106;-77
2022/04/18 05:31:05;;;;;;;3.53;1.67;;;12.60;99.90;;;;;;5020888;28;20052;-77
2022/04/18 05:33:35;;;;;;;3.83;1.88;;;12.70;99.90;;;;;;5053039;28;20045;-77
2022/04/18 05:36:15;;;;;;;4.47;1.98;;;12.70;99.90;;;;;;5036635;28;20044;-76
2022/04/18 05:38:43;;;;;;;7.32;1.52;;;12.70;99.90;;;;;;5036230;28;20055;-76
2022/04/18 05:41:15;;;;;;;7.40;2.20;;;12.80;99.90;;;;;;5020287;28;20502;-77
2022/04/18 05:43:46;;;;;;;5.13;2.90;;;12.80;99.90;;;;;;5036793;28;20133;-77
2022/04/18 05:46:14;;;;;;;5.72;1.52;;;12.70;99.90;;;;;;5020686;28;20051;-77
2022/04/18 05:48:42;;;;;;;5.07;1.80;;;12.70;99.90;;;;;;5036455;28;20070;-77
2022/04/18 05:51:10;;;;;;;8.38;2.65;;;12.60;99.90;;;;;;5036414;28;20045;-77
2022/04/18 05:53:41;;;;;;;5.88;1.73;;;12.70;99.90;;;;;;5053379;28;20041;-77
2022/04/18 05:56:12;;;;;;;8.18;2.70;;;12.70;99.90;;;;;;5070747;28;20120;-77
2022/04/18 05:58:54;;;;;;;3.40;2.00;;;12.80;99.90;;;;;;5052873;28;20527;-79
2022/04/18 06:01:45;;;;;;;4.55;1.45;;;12.70;99.90;;;;;;5034115;28;20093;-77
2022/04/18 06:04:48;;;;;;;5.03;2.47;;;12.70;99.90;;;;;;5007881;28;20084;-77
2022/04/18 06:07:21;;;;;;;2.97;2.00;;;12.70;99.90;;;;;;5043214;28;20072;-77
2022/04/18 06:10:09;;;;;;;3.75;1.60;;;12.70;99.90;;;;;;5044568;28;20054;-77
2022/04/18 06:12:37;;;;;;;4.53;1.50;;;12.70;99.90;;;;;;5035783;28;20517;-77
2022/04/18 06:15:05;;;;;;;3.67;1.58;;;12.80;99.90;;;;;;5035965;28;20067;-76
2022/04/18 06:17:34;;;;;;;4.30;2.45;;;12.80;99.90;;;;;;5036344;28;20040;-77
2022/04/18 06:20:04;;;;;;;4.72;1.98;;;12.80;99.90;;;;;;5034408;28;20745;-77
2022/04/18 06:22:32;;;;;;;4.80;2.50;;;12.80;99.90;;;;;;5051944;28;20037;-77
2022/04/18 06:25:00;;;;;;;7.82;2.78;;;12.90;99.90;;;;;;5035669;28;20041;-77
2022/04/18 06:27:30;;;;;;;3.78;1.85;;;12.90;99.90;;;;;;5052921;28;20045;-76
2022/04/18 06:29:59;;;;;;;6.05;2.17;;;12.90;99.90;;;;;;5052504;28;20402;-77
2022/04/18 06:32:38;;;;;;;3.03;1.67;;;12.90;99.90;;;;;;5030611;28;20073;-77
2022/04/18 06:35:06;;;;;;;4.10;1.90;;;12.90;99.90;;;;;;5039197;28;20064;-77
2022/04/18 06:37:34;;;;;;;3.72;1.98;;;12.90;99.90;;;;;;5066650;28;20044;-76
2022/04/18 06:40:18;;;;;;;4.50;2.03;;;12.80;99.90;;;;;;5058079;28;20064;-78
2022/04/18 06:42:46;;;;;;;6.88;2.67;;;12.80;99.90;;;;;;5081712;28;20094;-78
2022/04/18 06:45:22;;;;;;;2.95;2.33;;;12.90;99.90;;;;;;5056151;28;20093;-78
2022/04/18 06:47:49;;;;;;;3.25;1.45;;;13.00;99.90;;;;;;5079845;28;20108;-77
2022/04/18 06:50:40;;;;;;;5.97;1.60;;;13.00;99.90;;;;;;5083103;28;20055;-77
2022/04/18 06:53:46;;;;;;;2.88;1.60;;;13.00;99.90;;;;;;5067426;28;20121;-78
2022/04/18 06:59:22;;;;;;;4.57;1.77;;;13.10;99.90;;;;;;5055698;28;20071;-76
2022/04/18 07:01:50;;;;;;;3.47;1.38;;;13.20;99.90;;;;;;5072214;28;20093;-77
2022/04/18 07:04:19;;;;;;;6.78;1.80;;;13.20;99.90;;;;;;5038897;28;20423;-80
2022/04/18 07:06:47;;;;;;;7.00;1.92;;;13.30;99.90;;;;;;5055259;28;20090;-76
2022/04/18 07:09:14;;;;;;;4.75;1.60;;;13.30;99.90;;;;;;5072205;28;20078;-77
2022/04/18 07:11:45;;;;;;;6.30;2.55;;;13.30;99.90;;;;;;5039140;28;20040;-77
2022/04/18 07:14:15;;;;;;;4.57;1.95;;;13.40;99.90;;;;;;5054927;28;20113;-77
2022/04/18 07:16:46;;;;;;;5.00;1.70;;;13.30;99.90;;;;;;5054976;28;20194;-77
2022/04/18 07:19:19;;;;;;;6.93;1.80;;;13.30;99.90;;;;;;5056225;28;20375;-77
2022/04/18 07:21:48;;;;;;;4.05;2.10;;;13.30;99.90;;;;;;5038780;28;20059;-78
2022/04/18 07:24:16;;;;;;;8.15;2.72;;;13.30;99.90;;;;;;5054961;28;20052;-77
2022/04/18 07:26:45;;;;;;;10.30;2.65;;;13.30;99.90;;;;;;5055578;28;20416;-78
2022/04/18 07:29:13;;;;;;;8.50;2.92;;;13.40;99.90;;;;;;5054794;28;20048;-77
2022/04/18 07:31:42;;;;;;;7.78;2.15;;;13.40;99.90;;;;;;5074716;28;20051;-78
2022/04/18 07:34:10;;;;;;;4.88;2.17;;;13.50;99.90;;;;;;5042186;28;20055;-79
2022/04/18 07:36:38;;;;;;;13.73;2.47;;;13.60;99.90;;;;;;5058092;28;20052;-78
2022/04/18 07:39:08;;;;;;;7.03;2.25;;;13.60;99.90;;;;;;5058623;28;20079;-79
2022/04/18 07:41:42;;;;;;;9.05;2.40;;;13.60;99.90;;;;;;5075518;28;20040;-79
2022/04/18 07:44:09;;;;;;;8.98;2.28;;;13.70;99.90;;;;;;5075326;28;20498;-77
2022/04/18 07:46:38;;;;;;;2.60;1.60;;;13.70;99.90;;;;;;5058518;28;20444;-77
2022/04/18 07:49:16;;;;;;;7.97;2.20;;;13.60;99.90;;;;;;5043107;28;20044;-78
2022/04/18 07:51:48;;;;;;;5.63;2.63;;;13.70;99.90;;;;;;5038110;28;20410;-77
2022/04/18 07:54:27;;;;;;;4.93;1.90;;;13.80;99.90;;;;;;5038015;28;20049;-77
2022/04/18 07:56:56;;;;;;;3.85;1.67;;;13.80;99.90;;;;;;5054616;28;20140;-78
2022/04/18 07:59:38;;;;;;;5.22;2.20;;;13.80;99.90;;;;;;5072057;28;20551;-81
2022/04/18 08:02:08;;;;;;;6.05;2.00;;;14.00;99.90;;;;;;5038046;28;20524;-78
2022/04/18 08:04:55;;;;;;;11.52;3.47;;;14.00;99.90;;;;;;5040437;28;20056;-78
2022/04/18 08:07:34;;;;;;;7.28;3.22;;;14.00;99.90;;;;;;5023396;28;20073;-78
2022/04/18 08:10:03;;;;;;;7.05;2.38;;;13.90;99.70;;;;;;5038696;28;20049;-78
2022/04/18 08:12:34;;;;;;;5.07;2.10;;;13.90;99.90;;;;;;5071373;28;20048;-79
2022/04/18 08:15:25;;;;;;;4.25;2.05;;;13.90;99.90;;;;;;5039150;28;20047;-78
2022/04/18 08:17:52;;;;;;;5.57;2.30;;;13.80;99.90;;;;;;5037697;28;20044;-77
2022/04/18 08:20:38;;;;;;;6.88;2.83;;;13.90;99.80;;;;;;5023279;28;20045;-79
2022/04/18 08:23:05;;;;;;;2.92;1.92;;;13.90;99.80;;;;;;5021043;28;20577;-76
2022/04/18 08:25:51;;;;;;;5.63;1.50;;;13.80;99.70;;;;;;5070980;28;20383;-78
2022/04/18 08:28:46;;;;;;;7.15;2.90;;;13.90;99.60;;;;;;5034744;28;20056;-77
2022/04/18 08:31:14;;;;;;;3.63;1.70;;;14.10;99.50;;;;;;5021752;28;20067;-78
2022/04/18 08:34:00;;;;;;;4.70;2.13;;;14.30;99.10;;;;;;5070779;28;20040;-79
2022/04/18 08:36:29;;;;;;;4.70;2.22;;;14.40;98.50;;;;;;5021508;28;20139;-76
2022/04/18 08:38:57;;;;;;;5.10;1.50;;;14.60;98.50;;;;;;5054024;28;20121;-78
2022/04/18 08:41:34;;;;;;;3.83;1.92;;;14.60;97.90;;;;;;5071702;28;20040;-78
2022/04/18 08:44:04;;;;;;;3.53;1.60;;;14.70;97.60;;;;;;5037532;28;20735;-77
2022/04/18 08:46:32;;;;;;;6.53;1.95;;;14.70;97.40;;;;;;5043183;28;20036;-77
2022/04/18 08:54:40;;;;;;;4.50;1.55;;;14.50;96.30;;;;;;5074076;28;20425;-78
2022/04/18 08:57:07;;;;;;;2.58;1.23;;;14.70;96.80;;;;;;5040423;28;20079;-78
2022/04/18 08:59:35;;;;;;;7.93;2.20;;;14.70;96.60;;;;;;5073515;28;20070;-77
2022/04/18 09:02:06;;;;;;;4.47;1.65;;;14.70;96.70;;;;;;5056858;28;20093;-77
2022/04/18 09:05:00;;;;;;;7.55;3.13;;;14.70;96.20;;;;;;5070392;28;20056;-77
2022/04/18 09:07:28;;;;;;;4.68;1.77;;;14.80;96.10;;;;;;5040645;28;20101;-78
2022/04/18 09:09:58;;;;;;;3.75;2.00;;;14.90;96.40;;;;;;5073714;28;20051;-77
2022/04/18 09:12:29;;;;;;;3.40;1.85;;;14.90;95.80;;;;;;5057008;28;20055;-78
2022/04/18 09:15:39;;;;;;;9.02;2.95;;;14.80;95.40;;;;;;5057391;28;20524;-77
2022/04/18 09:18:18;;;;;;;3.83;1.52;;;14.70;95.60;;;;;;5056829;28;20052;-77
2022/04/18 09:20:53;;;;;;;4.55;2.38;;;14.80;95.80;;;;;;5041165;28;20048;-78
2022/04/18 09:23:38;;;;;;;4.07;1.77;;;14.60;95.60;;;;;;5056999;28;20460;-78
2022/04/18 09:26:22;;;;;;;7.55;1.73;;;14.70;95.50;;;;;;5073166;28;20091;-77
2022/04/18 09:28:50;;;;;;;9.43;1.73;;;14.80;95.50;;;;;;5056335;28;20420;-78
2022/04/18 09:31:19;;;;;;;6.32;2.13;;;14.80;95.40;;;;;;5073683;28;20190;-77
2022/04/18 09:33:56;;;;;;;4.18;2.22;;;15.00;95.70;;;;;;5041059;28;20559;-77
2022/04/18 09:36:26;;;;;;;6.45;2.08;;;15.10;95.60;;;;;;5073599;28;20036;-75
2022/04/18 09:38:56;;;;;;;5.03;2.38;;;15.40;95.40;;;;;;5057532;28;20055;-78
2022/04/18 09:41:26;;;;;;;5.40;1.90;;;15.60;94.80;;;;;;5073910;28;20581;-79
2022/04/18 09:43:56;;;;;;;5.43;1.50;;;15.90;94.80;;;;;;5054368;28;20042;-77
2022/04/18 09:46:31;;;;;;;6.20;1.73;;;16.10;95.10;;;;;;5037054;28;20056;-77
2022/04/18 09:49:07;;;;;;;3.55;1.50;;;16.30;94.40;;;;;;5021774;28;20076;-76
2022/04/18 09:51:42;;;;;;;6.95;1.60;;;16.30;93.60;;;;;;5036992;28;20045;-79
2022/04/18 09:54:17;;;;;;;2.92;1.35;;;16.40;93.40;;;;;;5037530;28;20036;-76
2022/04/18 09:56:50;;;;;;;4.25;1.50;;;16.40;93.20;;;;;;5036582;28;20049;-77
2022/04/18 09:59:19;;;;;;;5.20;1.40;;;16.30;93.20;;;;;;5037297;28;20074;-77
2022/04/18 10:01:47;;;;;;;5.05;1.60;;;16.20;92.90;;;;;;5036603;28;20048;-77
2022/04/18 10:04:16;;;;;;;5.15;1.52;;;16.20;93.60;;;;;;5036265;28;20052;-77
2022/04/18 10:06:45;;;;;;;19.80;2.80;;;16.10;93.70;;;;;;5035994;28;20049;-77
2022/04/18 10:09:15;;;;;;;6.22;2.38;;;16.00;93.50;;;;;;5052981;28;20131;-78
2022/04/18 10:11:44;;;;;;;6.47;1.95;;;15.90;93.80;;;;;;5036400;28;20049;-78
2022/04/18 10:14:12;;;;;;;7.57;3.13;;;15.70;94.20;;;;;;5053059;28;20493;-77
2022/04/18 10:16:42;;;;;;;4.18;1.98;;;15.80;94.60;;;;;;5052385;28;20051;-77
2022/04/18 10:19:31;;;;;;;3.58;1.83;;;15.50;94.20;;;;;;5052632;28;20809;-79
2022/04/18 10:22:28;;;;;;;5.78;2.65;;;15.50;94.20;;;;;;5052730;28;20179;-78
2022/04/18 10:25:33;;;;;;;5.68;1.85;;;15.50;94.50;;;;;;5070607;28;20059;-79
2022/04/18 10:28:16;;;;;;;3.45;1.80;;;15.50;94.40;;;;;;5052860;28;20055;-79
2022/04/18 10:30:52;;;;;;;3.38;1.40;;;15.50;94.10;;;;;;5052886;28;20076;-79
2022/04/18 10:33:21;;;;;;;4.25;1.85;;;15.70;94.40;;;;;;5069012;28;20044;-76
2022/04/18 10:35:53;;;;;;;4.57;2.10;;;15.70;93.90;;;;;;5072747;28;20051;-78
2022/04/18 10:38:24;;;;;;;4.63;2.03;;;15.70;93.70;;;;;;5072447;28;20416;-77
2022/04/18 10:41:14;;;;;;;4.70;2.00;;;15.90;94.60;;;;;;5054935;28;20074;-78
2022/04/18 10:44:10;;;;;;;6.50;2.53;;;15.80;93.00;;;;;;5072526;28;20055;-75
2022/04/18 10:46:49;;;;;;;10.35;5.43;;;15.80;93.90;;;;;;5036079;28;20071;-77
2022/04/18 10:49:19;;;;;;;8.18;5.63;;;15.80;92.60;;;;;;5055638;28;20048;-78
2022/04/18 10:51:51;;;;;;;8.55;4.40;;;15.70;92.10;;;;;;5072493;28;20044;-77
2022/04/18 10:54:21;;;;;;;4.43;3.05;;;15.60;92.70;;;;;;5072744;28;20043;-78
2022/04/18 10:56:56;;;;;;;2.85;1.52;;;15.60;93.10;;;;;;5039186;28;20454;-80
2022/04/18 10:59:35;;;;;;;1.80;0.90;;;15.70;93.30;;;;;;5056057;28;20508;-77
2022/04/18 11:02:05;;;;;;;1.80;1.02;;;15.80;92.10;;;;;;5073177;28;20129;-77
2022/04/18 11:04:46;;;;;;;4.22;1.40;;;15.80;92.10;;;;;;5056085;28;20086;-76
2022/04/18 11:07:14;;;;;;;3.63;1.45;;;15.80;92.10;;;;;;5060314;28;20090;-76
2022/04/18 11:09:48;;;;;;;2.30;1.30;;;15.80;92.20;;;;;;5060039;28;20036;-78
2022/04/18 11:12:21;;;;;;;4.22;1.27;;;15.80;92.20;;;;;;5094862;28;20791;-76
2022/04/18 11:15:02;;;;;;;1.80;1.10;;;15.80;92.10;;;;;;5060303;28;20197;-77
2022/04/18 11:17:38;;;;;;;6.93;1.50;;;15.90;92.70;;;;;;5077207;28;20043;-77
2022/04/18 11:20:29;;;;;;;1.73;1.15;;;15.90;91.50;;;;;;5076896;28;20101;-76
2022/04/18 11:23:15;;;;;;;2.83;1.40;;;16.00;91.40;;;;;;5060179;28;20036;-77
2022/04/18 11:26:12;;;;;;;9.50;2.67;;;16.00;92.30;;;;;;5058896;28;20075;-76
2022/04/18 11:28:41;;;;;;;3.88;1.40;;;16.00;92.60;;;;;;5072727;28;20807;-76
2022/04/18 11:31:17;;;;;;;3.30;2.00;;;15.90;92.70;;;;;;5040024;28;20034;-76
2022/04/18 11:33:46;;;;;;;7.07;1.70;;;15.90;92.40;;;;;;5039721;28;20048;-76
2022/04/18 11:36:14;;;;;;;2.58;1.60;;;15.80;92.20;;;;;;5056882;28;20076;-76
2022/04/18 11:38:42;;;;;;;5.18;1.38;;;15.90;92.60;;;;;;5074302;28;20491;-77
2022/04/18 11:41:14;;;;;;;6.80;2.45;;;15.90;91.90;;;;;;5056908;28;20044;-77
2022/04/18 11:43:43;;;;;;;3.80;1.45;;;16.10;92.50;;;;;;5040029;28;20048;-77
2022/04/18 11:46:10;;;;;;;4.05;1.63;;;16.20;92.40;;;;;;5040030;28;20048;-78
2022/04/18 11:48:39;;;;;;;3.30;1.40;;;16.40;91.60;;;;;;5056182;28;20044;-77
2022/04/18 11:51:06;;;;;;;5.00;1.55;;;16.50;91.60;;;;;;5056495;28;20040;-76
2022/04/18 11:53:39;;;;;;;3.95;1.60;;;16.50;90.70;;;;;;5040500;28;20045;-78
2022/04/18 11:56:07;;;;;;;4.03;1.80;;;16.60;91.20;;;;;;5039648;28;20048;-77
2022/04/18 11:58:37;;;;;;;5.25;1.75;;;16.70;91.80;;;;;;5039877;28;20049;-76
2022/04/18 12:06:46;;;;;;;;;;;16.70;90.50;;;;;;5056465;28;20054;-78
2022/04/18 12:09:21;;;;;;;9.00;2.65;;;16.60;90.90;;;;;;5039717;28;19920;-76
2022/04/18 12:11:49;;;;;;;2.80;1.50;;;16.60;89.80;;;;;;5056063;28;20045;-76
2022/04/18 12:14:18;;;;;;;4.78;1.58;;;16.70;89.00;;;;;;5063999;28;20152;-78
2022/04/18 12:16:45;;;;;;;3.42;1.48;;;16.60;90.30;;;;;;5041559;28;20054;-76
2022/04/18 12:19:15;;;;;;;5.70;1.92;;;16.60;90.50;;;;;;5059517;28;20125;-76
2022/04/18 12:21:44;;;;;;;3.17;1.23;;;16.60;90.30;;;;;;5093861;28;20093;-77
2022/04/18 12:24:11;;;;;;;3.75;1.85;;;16.70;90.50;;;;;;5059210;28;20051;-77
2022/04/18 12:26:40;;;;;;;2.78;1.88;;;16.80;90.10;;;;;;5059044;28;20513;-76
2022/04/18 12:29:10;;;;;;;5.03;1.67;;;16.80;90.20;;;;;;5076076;28;20544;-76
2022/04/18 12:31:42;;;;;;;4.80;1.55;;;16.70;90.40;;;;;;5075902;28;20047;-76
2022/04/18 12:34:20;;;;;;;4.25;1.58;;;16.70;90.10;;;;;;5076104;28;20057;-77
2022/04/18 12:37:03;;;;;;;5.57;2.70;;;16.70;90.20;;;;;;5075755;28;20717;-77
2022/04/18 12:39:31;;;;;;;5.20;1.92;;;16.70;90.60;;;;;;5043006;28;20043;-77
2022/04/18 12:42:04;;;;;;;4.47;1.92;;;16.70;90.20;;;;;;5042699;28;20044;-77
2022/04/18 12:44:32;;;;;;;4.25;1.50;;;16.70;89.10;;;;;;5058860;28;20050;-77
2022/04/18 12:47:14;;;;;;;5.07;2.00;;;16.70;89.30;;;;;;5059097;28;20036;-76
2022/04/18 12:50:02;;;;;;;2.72;1.30;;;16.70;89.70;;;;;;5091039;28;20064;-77
2022/04/18 12:52:30;;;;;;;2.45;1.30;;;16.70;87.00;;;;;;5042656;28;20457;-77
2022/04/18 12:55:07;;;;;;;4.60;1.42;;;16.70;88.30;;;;;;5058981;28;20043;-77
2022/04/18 12:57:35;;;;;;;3.50;1.70;;;16.70;89.20;;;;;;5059618;28;20048;-77
2022/04/18 13:00:17;;;;;;;3.10;1.20;;;16.70;88.70;;;;;;5075027;28;20559;-76
2022/04/18 13:03:05;;;;;;;6.05;2.08;;;16.70;88.80;;;;;;5058530;28;20036;-79
2022/04/18 13:05:40;;;;;;;3.92;1.80;;;16.60;90.00;;;;;;5063284;28;20384;-77
2022/04/18 13:08:09;;;;;;;3.63;1.37;;;16.60;90.20;;;;;;5055641;28;20139;-77
2022/04/18 13:10:38;;;;;;;3.72;1.45;;;16.50;89.60;;;;;;5038401;28;20135;-76
2022/04/18 13:13:05;;;;;;;3.92;1.60;;;16.40;89.30;;;;;;5072791;28;20045;-76
2022/04/18 13:15:34;;;;;;;10.10;3.17;;;16.40;89.20;;;;;;5055819;28;20044;-77
2022/04/18 13:18:05;;;;;;;2.65;1.27;;;16.40;89.60;;;;;;5039003;28;20110;-77
2022/04/18 13:20:33;;;;;;;6.50;1.38;;;16.50;90.10;;;;;;5038998;28;20044;-77
2022/04/18 13:23:03;;;;;;;4.03;1.40;;;16.50;88.20;;;;;;5022231;28;20044;-77
2022/04/18 13:25:31;;;;;;;2.17;1.25;;;16.50;89.50;;;;;;5055335;28;20040;-78
2022/04/18 13:28:06;;;;;;;4.00;1.88;;;16.50;89.40;;;;;;5054671;28;20376;-77
2022/04/18 13:30:36;;;;;;;2.65;1.42;;;16.60;87.50;;;;;;5022246;28;20143;-77
2022/04/18 13:33:06;;;;;;;2.50;1.35;;;16.60;88.00;;;;;;5022009;28;20455;-77
2022/04/18 13:38:27;;;;;;;1.85;0.95;;;16.50;83.20;;;;;;5034800;28;20040;-78